createdAt,value
2023-01-29T00:08:40.265Z,82.12
2023-01-29T00:37:02.710Z,82
2023-01-29T01:05:37.772Z,82.12
2023-01-29T01:34:04.397Z,81.16
2023-01-29T02:02:27.701Z,81.44
2023-01-29T02:30:52.719Z,81.42
2023-01-29T02:59:25.916Z,81.31
2023-01-29T03:28:07.802Z,81.13
2023-01-29T03:56:50.121Z,80.71
2023-01-29T04:25:27.542Z,80.87
2023-01-29T04:54:06.760Z,80.15
2023-01-29T05:22:41.034Z,80.4
2023-01-29T05:51:17.151Z,80.86
2023-01-29T06:19:50.947Z,81.12
2023-01-29T06:48:37.711Z,81.02
2023-01-29T07:17:07.236Z,81.21
2023-01-29T07:45:44.345Z,80.32
2023-01-29T08:14:08.433Z,80.03
2023-01-29T08:42:27.687Z,79.59
2023-01-29T09:10:45.514Z,78.21
2023-01-29T09:39:19.869Z,76.2
2023-01-29T10:07:53.626Z,75.37
2023-01-29T10:36:18.192Z,73.51
2023-01-29T11:04:56.369Z,73.95
2023-01-29T11:33:27.979Z,72.83
2023-01-29T12:02:02.757Z,68.61
2023-01-29T12:30:28.831Z,68.45
2023-01-29T12:59:00.349Z,68.46
2023-01-29T13:27:23.418Z,69.36
2023-01-29T13:55:52.593Z,69.71
2023-01-29T14:24:21.883Z,69.74
2023-01-29T14:52:39.293Z,70.59
2023-01-29T15:21:11.578Z,71.64
2023-01-29T15:49:42.379Z,73.49
2023-01-29T16:17:55.659Z,75.96
2023-01-29T16:46:21.230Z,77.91
2023-01-29T17:14:34.225Z,80.83
2023-01-29T17:43:04.513Z,81.97
2023-01-29T18:11:19.666Z,82.82
2023-01-29T18:39:49.177Z,84.07
2023-01-29T19:08:14.480Z,83.75
2023-01-29T19:36:55.873Z,83.97
2023-01-29T20:05:10.209Z,84.44
2023-01-29T20:33:53.702Z,84.94
2023-01-29T21:02:33.024Z,85.53
2023-01-29T21:30:59.583Z,86.45
2023-01-29T21:59:29.298Z,87.29
2023-01-29T22:28:10.273Z,87.18
2023-01-29T22:56:44.436Z,87.56
2023-01-29T23:25:20.723Z,88.11
2023-01-29T23:53:51.873Z,87.87
